createdAt,value
2024-01-26T06:01:24.299Z,96254.00
2024-01-26T06:01:59.709Z,96262.00
2024-01-26T06:02:59.729Z,96255.00
2024-01-26T06:03:59.780Z,96258.00
2024-01-26T06:04:59.711Z,96257.00
2024-01-26T06:05:59.784Z,96257.00
2024-01-26T06:06:59.751Z,96254.00
2024-01-26T06:07:59.789Z,96250.00
2024-01-26T06:08:59.839Z,96248.00
2024-01-26T06:09:59.701Z,96248.00
2024-01-26T06:10:59.703Z,96247.00
2024-01-26T06:11:59.696Z,96250.00
2024-01-26T06:12:59.743Z,96248.00
2024-01-26T06:13:59.710Z,96251.00
2024-01-26T06:14:59.731Z,96249.00
2024-01-26T06:15:59.729Z,96255.00
2024-01-26T06:16:59.773Z,96261.00
2024-01-26T06:17:59.965Z,96268.00
2024-01-26T06:19:01.785Z,96270.00
2024-01-26T06:19:59.714Z,96269.00
2024-01-26T06:20:59.777Z,96264.00
2024-01-26T06:21:59.783Z,96258.00
2024-01-26T06:22:59.733Z,96253.00
2024-01-26T06:23:59.788Z,96248.00
2024-01-26T06:24:59.824Z,96244.00
2024-01-26T06:25:59.748Z,96248.00
2024-01-26T06:26:59.773Z,96251.00
2024-01-26T06:27:59.743Z,96253.00
2024-01-26T06:28:59.728Z,96255.00
2024-01-26T06:29:59.798Z,96255.00
2024-01-26T06:30:59.740Z,96253.00
2024-01-26T06:31:59.730Z,96254.00
2024-01-26T06:32:59.878Z,96257.00
2024-01-26T06:33:59.848Z,96262.00
2024-01-26T06:34:59.817Z,96266.00
2024-01-26T06:35:59.812Z,96265.00
2024-01-26T06:36:59.756Z,96264.00
2024-01-26T06:37:59.723Z,96262.00
2024-01-26T06:38:59.781Z,96269.00
2024-01-26T06:39:59.706Z,96274.00
2024-01-26T06:40:59.762Z,96274.00
2024-01-26T06:41:59.791Z,96275.00
2024-01-26T06:42:59.736Z,96274.00
2024-01-26T06:43:59.761Z,96269.00
2024-01-26T06:44:59.784Z,96273.00
2024-01-26T06:45:59.865Z,96272.00
2024-01-26T06:46:59.847Z,96271.00
2024-01-26T06:47:59.820Z,96277.00
2024-01-26T06:49:01.132Z,96276.00
2024-01-26T06:49:59.834Z,96277.00
2024-01-26T06:50:59.924Z,96279.00
2024-01-26T06:51:59.957Z,96278.00
2024-01-26T06:52:59.972Z,96276.00
2024-01-26T06:54:00.128Z,96277.00
2024-01-26T06:55:00.289Z,96280.00
2024-01-26T06:56:00.240Z,96282.00
2024-01-26T06:57:00.323Z,96285.00
2024-01-26T06:58:00.345Z,96284.00
2024-01-26T06:59:00.361Z,96278.00
2024-01-26T07:00:01.218Z,96278.00
2024-01-26T07:01:00.591Z,96275.00
2024-01-26T07:02:00.506Z,96279.00
2024-01-26T07:03:00.634Z,96282.00
2024-01-26T07:04:00.792Z,96283.00
2024-01-26T07:05:00.678Z,96285.00
2024-01-26T07:06:00.732Z,96286.00
2024-01-26T07:07:00.809Z,96284.00
2024-01-26T07:08:00.733Z,96286.00
2024-01-26T07:09:00.976Z,96284.00
2024-01-26T07:10:00.885Z,96286.00
2024-01-26T07:11:00.884Z,96288.00
2024-01-26T07:12:01.400Z,96291.00
2024-01-26T07:13:00.817Z,96293.00
2024-01-26T07:14:00.826Z,96292.00
2024-01-26T07:15:00.989Z,96290.00
2024-01-26T07:16:00.848Z,96287.00
2024-01-26T07:17:00.868Z,96283.00
2024-01-26T07:18:00.955Z,96281.00
2024-01-26T07:19:00.987Z,96281.00
2024-01-26T07:20:01.095Z,96278.00
2024-01-26T07:21:01.019Z,96277.00
2024-01-26T07:22:00.925Z,96276.00
2024-01-26T07:23:01.042Z,96276.00
2024-01-26T07:24:01.082Z,96274.00
2024-01-26T07:25:01.108Z,96273.00
2024-01-26T07:26:01.140Z,96269.00
2024-01-26T07:27:01.145Z,96266.00
2024-01-26T07:28:01.069Z,96262.00
2024-01-26T07:29:01.092Z,96262.00
2024-01-26T07:30:01.172Z,96266.00
2024-01-26T07:31:01.078Z,96269.00
2024-01-26T07:32:01.204Z,96271.00
2024-01-26T07:33:01.254Z,96270.00
2024-01-26T07:34:01.309Z,96269.00
2024-01-26T07:35:01.217Z,96266.00
2024-01-26T07:36:01.256Z,96265.00
2024-01-26T07:37:01.129Z,96266.00
2024-01-26T07:38:01.135Z,96268.00
2024-01-26T07:39:01.788Z,96265.00
2024-01-26T07:40:01.670Z,96267.00
2024-01-26T07:41:01.151Z,96271.00
2024-01-26T07:42:01.248Z,96270.00
2024-01-26T07:43:01.201Z,96270.00
2024-01-26T07:44:01.150Z,96268.00
2024-01-26T07:45:01.253Z,96267.00
2024-01-26T07:46:01.093Z,96267.00
2024-01-26T07:47:01.142Z,96270.00
2024-01-26T07:48:01.298Z,96272.00
2024-01-26T07:49:01.243Z,96276.00
2024-01-26T07:50:01.313Z,96275.00
2024-01-26T07:51:01.176Z,96277.00
2024-01-26T07:52:01.114Z,96275.00
2024-01-26T07:53:01.118Z,96274.00
2024-01-26T07:54:01.166Z,96270.00
2024-01-26T07:55:01.150Z,96272.00
2024-01-26T07:56:02.411Z,96271.00
2024-01-26T07:57:01.220Z,96274.00
2024-01-26T07:58:01.192Z,96271.00
2024-01-26T07:59:01.234Z,96273.00
2024-01-26T08:00:01.318Z,96270.00
2024-01-26T08:01:01.280Z,96269.00
2024-01-26T08:02:01.265Z,96271.00
2024-01-26T08:03:01.275Z,96273.00
2024-01-26T08:04:01.399Z,96268.00
2024-01-26T08:05:01.270Z,96267.00
2024-01-26T08:06:01.465Z,96262.00
2024-01-26T08:07:02.226Z,96259.00
2024-01-26T08:08:01.389Z,96261.00
2024-01-26T08:09:01.351Z,96263.00
2024-01-26T08:10:01.441Z,96265.00
2024-01-26T08:11:01.386Z,96267.00
2024-01-26T08:12:01.399Z,96268.00
2024-01-26T08:13:01.502Z,96269.00
2024-01-26T08:14:01.411Z,96267.00
2024-01-26T08:15:01.482Z,96262.00
2024-01-26T08:16:01.391Z,96258.00
2024-01-26T08:17:01.446Z,96254.00
2024-01-26T08:18:01.520Z,96251.00
2024-01-26T08:19:01.562Z,96250.00
2024-01-26T08:20:01.490Z,96247.00
2024-01-26T08:21:01.534Z,96245.00
2024-01-26T08:22:01.506Z,96246.00
2024-01-26T08:23:01.475Z,96246.00
2024-01-26T08:24:01.499Z,96250.00
2024-01-26T08:25:01.538Z,96249.00
2024-01-26T08:26:01.757Z,96250.00
2024-01-26T08:27:01.716Z,96246.00
2024-01-26T08:28:01.810Z,96242.00
2024-01-26T08:29:01.796Z,96240.00
2024-01-26T08:30:01.901Z,96239.00
2024-01-26T08:31:01.767Z,96236.00
2024-01-26T08:32:01.865Z,96234.00
2024-01-26T08:33:01.971Z,96235.00
2024-01-26T08:34:02.183Z,96242.00
2024-01-26T08:35:02.449Z,96244.00
2024-01-26T08:36:02.117Z,96249.00
2024-01-26T08:37:02.217Z,96247.00
2024-01-26T08:38:02.147Z,96247.00
2024-01-26T08:39:02.218Z,96247.00
2024-01-26T08:40:02.130Z,96251.00
2024-01-26T08:41:02.213Z,96252.00
2024-01-26T08:42:02.801Z,96251.00
2024-01-26T08:43:02.234Z,96252.00
2024-01-26T08:44:02.209Z,96255.00
2024-01-26T08:45:02.381Z,96254.00
2024-01-26T08:46:02.274Z,96251.00
2024-01-26T08:47:02.367Z,96250.00
2024-01-26T08:48:02.535Z,96249.00
2024-01-26T08:49:02.821Z,96250.00
2024-01-26T08:50:02.559Z,96247.00
2024-01-26T08:51:02.672Z,96248.00
2024-01-26T08:52:02.653Z,96247.00
2024-01-26T08:53:02.679Z,96243.00
2024-01-26T08:54:02.820Z,96238.00
2024-01-26T08:55:02.739Z,96234.00
2024-01-26T08:56:02.814Z,96234.00
2024-01-26T08:57:02.825Z,96229.00
2024-01-26T08:58:02.851Z,96231.00
2024-01-26T08:59:03.173Z,96227.00
2024-01-26T09:00:02.930Z,96222.00
2024-01-26T09:01:02.959Z,96216.00
2024-01-26T09:02:02.884Z,96209.00
2024-01-26T09:03:02.957Z,96208.00
2024-01-26T09:04:02.960Z,96209.00
2024-01-26T09:05:03.465Z,96208.00
2024-01-26T09:06:02.999Z,96207.00
2024-01-26T09:07:10.067Z,96205.00
2024-01-26T09:08:03.983Z,96201.00
2024-01-26T09:09:02.996Z,96196.00
2024-01-26T09:10:03.011Z,96197.00
2024-01-26T09:11:02.962Z,96195.00
2024-01-26T09:12:03.016Z,96196.00
2024-01-26T09:13:02.980Z,96195.00
2024-01-26T09:14:03.022Z,96196.00
2024-01-26T09:15:03.018Z,96195.00
2024-01-26T09:16:03.784Z,96192.00
2024-01-26T09:17:03.000Z,96193.00
2024-01-26T09:18:03.162Z,96192.00
2024-01-26T09:19:04.331Z,96198.00
2024-01-26T09:20:03.338Z,96201.00
2024-01-26T09:21:02.973Z,96203.00
2024-01-26T09:22:02.952Z,96199.00
2024-01-26T09:23:02.975Z,96193.00
2024-01-26T09:24:05.703Z,96192.00
2024-01-26T09:25:02.972Z,96189.00
2024-01-26T09:26:03.069Z,96191.00
2024-01-26T09:27:03.024Z,96194.00
2024-01-26T09:28:02.971Z,96193.00
2024-01-26T09:29:10.291Z,96191.00
2024-01-26T09:30:10.548Z,96191.00
2024-01-26T09:31:10.307Z,96194.00
2024-01-26T09:32:10.274Z,96196.00
2024-01-26T09:33:10.323Z,96198.00
2024-01-26T09:34:10.396Z,96199.00
2024-01-26T09:35:10.332Z,96198.00
2024-01-26T09:36:10.353Z,96199.00
2024-01-26T09:37:10.320Z,96194.00
2024-01-26T09:38:10.329Z,96186.00
2024-01-26T09:39:10.309Z,96187.00
2024-01-26T09:40:10.311Z,96186.00
2024-01-26T09:41:10.287Z,96189.00
2024-01-26T09:42:10.336Z,96187.00
2024-01-26T09:43:10.301Z,96183.00
2024-01-26T09:44:10.287Z,96178.00
2024-01-26T09:45:10.316Z,96178.00
2024-01-26T09:46:10.291Z,96177.00
2024-01-26T09:47:10.337Z,96180.00
2024-01-26T09:48:10.385Z,96183.00
2024-01-26T09:49:10.356Z,96185.00
2024-01-26T09:50:10.343Z,96185.00
2024-01-26T09:51:10.499Z,96183.00
2024-01-26T09:52:10.485Z,96180.00
2024-01-26T09:53:10.520Z,96177.00
2024-01-26T09:54:10.574Z,96172.00
2024-01-26T09:55:10.603Z,96170.00
2024-01-26T09:56:10.675Z,96165.00
2024-01-26T09:57:10.790Z,96167.00
2024-01-26T09:58:10.800Z,96164.00
2024-01-26T09:59:10.860Z,96163.00
2024-01-26T10:00:10.944Z,96161.00
2024-01-26T10:01:11.059Z,96157.00
2024-01-26T10:02:11.046Z,96156.00
2024-01-26T10:03:11.160Z,96153.00
2024-01-26T10:04:11.287Z,96152.00
2024-01-26T10:05:11.241Z,96152.00
2024-01-26T10:06:11.378Z,96155.00
2024-01-26T10:07:11.463Z,96158.00
2024-01-26T10:08:11.446Z,96157.00
2024-01-26T10:09:11.516Z,96157.00
2024-01-26T10:10:11.498Z,96154.00
2024-01-26T10:11:11.540Z,96151.00
2024-01-26T10:12:11.756Z,96147.00
2024-01-26T10:13:11.621Z,96146.00
2024-01-26T10:14:11.691Z,96146.00
2024-01-26T10:15:11.905Z,96146.00
2024-01-26T10:16:11.824Z,96146.00
2024-01-26T10:17:11.778Z,96144.00
2024-01-26T10:18:11.962Z,96145.00
2024-01-26T10:19:12.064Z,96143.00
2024-01-26T10:20:11.994Z,96144.00
2024-01-26T10:21:12.113Z,96143.00
2024-01-26T10:22:11.984Z,96143.00
2024-01-26T10:23:12.005Z,96141.00
2024-01-26T10:24:12.113Z,96143.00
2024-01-26T10:25:12.092Z,96140.00
2024-01-26T10:26:12.148Z,96138.00
2024-01-26T10:27:12.236Z,96137.00
2024-01-26T10:28:12.197Z,96132.00
2024-01-26T10:29:12.217Z,96129.00
2024-01-26T10:30:12.311Z,96128.00
2024-01-26T10:31:12.274Z,96132.00
2024-01-26T10:32:12.306Z,96129.00
2024-01-26T10:33:12.490Z,96127.00
2024-01-26T10:34:12.444Z,96124.00
2024-01-26T10:35:12.543Z,96123.00
2024-01-26T10:36:12.548Z,96123.00
2024-01-26T10:37:12.504Z,96125.00
2024-01-26T10:38:12.491Z,96126.00
2024-01-26T10:39:12.539Z,96126.00
2024-01-26T10:40:12.560Z,96122.00
2024-01-26T10:41:12.578Z,96123.00
2024-01-26T10:42:12.600Z,96119.00
2024-01-26T10:43:12.584Z,96121.00
2024-01-26T10:44:12.583Z,96120.00
2024-01-26T10:45:12.917Z,96115.00
2024-01-26T10:46:12.608Z,96113.00
2024-01-26T10:47:12.632Z,96110.00
2024-01-26T10:48:12.713Z,96109.00
2024-01-26T10:49:12.798Z,96108.00
2024-01-26T10:50:12.909Z,96106.00
2024-01-26T10:51:13.219Z,96106.00
2024-01-26T10:52:12.836Z,96105.00
2024-01-26T10:53:12.698Z,96107.00
2024-01-26T10:54:12.905Z,96107.00
2024-01-26T10:55:12.828Z,96102.00
2024-01-26T10:56:12.843Z,96095.00
2024-01-26T10:57:13.034Z,96094.00
2024-01-26T10:58:12.941Z,96091.00
2024-01-26T10:59:13.005Z,96090.00
2024-01-26T11:00:13.147Z,96085.00
2024-01-26T11:01:16.297Z,96078.00
2024-01-26T11:02:21.171Z,96074.00
2024-01-26T11:03:14.293Z,96078.00
2024-01-26T11:04:13.191Z,96077.00
2024-01-26T11:05:18.988Z,96075.00
2024-01-26T11:06:13.290Z,96074.00
2024-01-26T11:08:17.048Z,96071.00
2024-01-26T11:09:13.323Z,96068.00
2024-01-26T11:10:13.186Z,96068.00
2024-01-26T11:11:13.160Z,96065.00
2024-01-26T11:12:13.303Z,96063.00
2024-01-26T11:13:13.202Z,96064.00
2024-01-26T11:14:13.241Z,96059.00
2024-01-26T11:15:13.226Z,96059.00
2024-01-26T11:16:13.174Z,96059.00
2024-01-26T11:17:13.160Z,96053.00
2024-01-26T11:18:13.314Z,96049.00
2024-01-26T11:19:13.277Z,96047.00
2024-01-26T11:20:13.201Z,96047.00
2024-01-26T11:21:13.229Z,96046.00
2024-01-26T11:22:13.184Z,96047.00
2024-01-26T11:23:13.228Z,96039.00
2024-01-26T11:24:13.251Z,96037.00
2024-01-26T11:25:13.205Z,96040.00
2024-01-26T11:26:13.192Z,96034.00
2024-01-26T11:27:13.252Z,96034.00
2024-01-26T11:28:13.220Z,96027.00
2024-01-26T11:29:13.215Z,96026.00
2024-01-26T11:30:13.293Z,96027.00
2024-01-26T11:31:13.205Z,96032.00
2024-01-26T11:32:13.201Z,96027.00
2024-01-26T11:33:13.294Z,96018.00
2024-01-26T11:34:13.265Z,96015.00
2024-01-26T11:35:13.224Z,96016.00
2024-01-26T11:36:13.761Z,96014.00
2024-01-26T11:37:13.212Z,96011.00
2024-01-26T11:38:13.214Z,96008.00
2024-01-26T11:39:13.219Z,96005.00
2024-01-26T11:40:13.208Z,96003.00
2024-01-26T11:41:13.218Z,96002.00
2024-01-26T11:42:13.372Z,96005.00
2024-01-26T11:43:13.225Z,96003.00
2024-01-26T11:44:13.191Z,95998.00
2024-01-26T11:45:13.336Z,95991.00
2024-01-26T11:46:13.232Z,95987.00
2024-01-26T11:47:13.244Z,95982.00
2024-01-26T11:48:13.266Z,95981.00
2024-01-26T11:49:13.354Z,95979.00
2024-01-26T11:50:13.213Z,95978.00
2024-01-26T11:51:13.283Z,95981.00
2024-01-26T11:52:13.227Z,95978.00
2024-01-26T11:53:13.201Z,95977.00
2024-01-26T11:54:13.304Z,95971.00
2024-01-26T11:55:13.233Z,95967.00
2024-01-26T11:56:13.269Z,95967.00
2024-01-26T11:57:13.346Z,95966.00
2024-01-26T11:58:13.238Z,95968.00
2024-01-26T11:59:13.260Z,95968.00
2024-01-26T12:00:13.362Z,95968.00
2024-01-26T12:01:13.456Z,95962.00
2024-01-26T12:02:13.551Z,95964.00
2024-01-26T12:03:13.573Z,95964.00
2024-01-26T12:04:13.685Z,95963.00
2024-01-26T12:05:13.772Z,95959.00
2024-01-26T12:06:13.817Z,95959.00
2024-01-26T12:07:13.823Z,95956.00
2024-01-26T12:08:13.850Z,95953.00
2024-01-26T12:09:14.026Z,95953.00
2024-01-26T12:10:13.998Z,95951.00
2024-01-26T12:11:14.034Z,95951.00
2024-01-26T12:12:14.136Z,95951.00
2024-01-26T12:13:14.299Z,95948.00
2024-01-26T12:14:14.177Z,95945.00
2024-01-26T12:15:14.320Z,95941.00
2024-01-26T12:16:14.189Z,95938.00
2024-01-26T12:17:14.211Z,95939.00
2024-01-26T12:18:14.402Z,95937.00
2024-01-26T12:19:14.369Z,95937.00
2024-01-26T12:20:14.369Z,95935.00
2024-01-26T12:21:14.376Z,95936.00
2024-01-26T12:22:14.385Z,95933.00
2024-01-26T12:23:14.411Z,95929.00
2024-01-26T12:24:15.798Z,95929.00
2024-01-26T12:25:14.550Z,95931.00
2024-01-26T12:26:14.612Z,95931.00
2024-01-26T12:27:14.752Z,95932.00
2024-01-26T12:28:14.647Z,95925.00
2024-01-26T12:29:14.696Z,95918.00
2024-01-26T12:30:14.841Z,95912.00
2024-01-26T12:31:14.765Z,95912.00
2024-01-26T12:32:14.891Z,95911.00
2024-01-26T12:33:15.054Z,95914.00
2024-01-26T12:34:14.974Z,95913.00
2024-01-26T12:35:14.843Z,95913.00
2024-01-26T12:36:14.933Z,95912.00
2024-01-26T12:37:14.891Z,95914.00
2024-01-26T12:38:14.956Z,95913.00
2024-01-26T12:39:15.065Z,95912.00
2024-01-26T12:40:15.045Z,95914.00
2024-01-26T12:41:15.046Z,95906.00
2024-01-26T12:42:15.177Z,95903.00
2024-01-26T12:43:15.072Z,95902.00
2024-01-26T12:44:15.100Z,95902.00
2024-01-26T12:45:15.328Z,95903.00
2024-01-26T12:46:15.206Z,95901.00
2024-01-26T12:47:15.322Z,95901.00
2024-01-26T12:48:15.466Z,95898.00
2024-01-26T12:49:15.523Z,95898.00
2024-01-26T12:50:15.500Z,95895.00
2024-01-26T12:51:15.588Z,95898.00
2024-01-26T12:52:39.487Z,95899.00
2024-01-26T12:53:15.564Z,95896.00
2024-01-26T12:54:39.040Z,95894.00
2024-01-26T12:55:38.150Z,95893.00
2024-01-26T12:56:38.248Z,95890.00
2024-01-26T12:57:15.798Z,95887.00
2024-01-26T12:58:38.171Z,95886.00
2024-01-26T12:59:15.652Z,95883.00
2024-01-26T13:00:15.696Z,95883.00
2024-01-26T13:01:15.706Z,95886.00
2024-01-26T13:02:15.680Z,95885.00
2024-01-26T13:03:15.699Z,95884.00
2024-01-26T13:04:15.755Z,95878.00
2024-01-26T13:05:15.737Z,95876.00
2024-01-26T13:06:19.079Z,95877.00
2024-01-26T13:07:15.728Z,95881.00
2024-01-26T13:08:15.656Z,95880.00
2024-01-26T13:09:15.834Z,95883.00
2024-01-26T13:10:15.738Z,95883.00
2024-01-26T13:11:15.685Z,95881.00
2024-01-26T13:12:15.715Z,95885.00
2024-01-26T13:13:15.716Z,95889.00
2024-01-26T13:14:15.695Z,95884.00
2024-01-26T13:15:15.913Z,95880.00
2024-01-26T13:16:15.684Z,95874.00
2024-01-26T13:17:15.682Z,95870.00
2024-01-26T13:19:15.806Z,95878.00
2024-01-26T13:20:19.723Z,95875.00
2024-01-26T13:21:16.876Z,95872.00
2024-01-26T13:22:15.732Z,95864.00
2024-01-26T13:23:15.698Z,95863.00
2024-01-26T13:24:15.941Z,95865.00
2024-01-26T13:25:15.714Z,95867.00
2024-01-26T13:26:15.722Z,95865.00
2024-01-26T13:27:17.617Z,95862.00
2024-01-26T13:28:16.717Z,95865.00
2024-01-26T13:29:15.722Z,95869.00
2024-01-26T13:30:16.332Z,95870.00
2024-01-26T13:31:16.264Z,95867.00
2024-01-26T13:32:15.726Z,95863.00
2024-01-26T13:33:15.950Z,95864.00
2024-01-26T13:34:15.921Z,95865.00
2024-01-26T13:35:15.776Z,95867.00
2024-01-26T13:36:15.767Z,95867.00
2024-01-26T13:37:15.710Z,95866.00
2024-01-26T13:38:15.730Z,95867.00
2024-01-26T13:39:15.781Z,95867.00
2024-01-26T13:40:15.740Z,95866.00
2024-01-26T13:41:15.800Z,95865.00
2024-01-26T13:42:15.935Z,95863.00
2024-01-26T13:43:15.894Z,95870.00
2024-01-26T13:44:15.960Z,95867.00
2024-01-26T13:45:16.128Z,95863.00
2024-01-26T13:46:16.048Z,95862.00
2024-01-26T13:47:16.106Z,95861.00
2024-01-26T13:48:16.261Z,95863.00
2024-01-26T13:49:16.404Z,95865.00
2024-01-26T13:50:16.358Z,95864.00
2024-01-26T13:51:16.396Z,95867.00
2024-01-26T13:52:16.414Z,95864.00
2024-01-26T13:53:16.488Z,95866.00
2024-01-26T13:54:16.563Z,95867.00
2024-01-26T13:55:18.759Z,95865.00
2024-01-26T13:56:16.591Z,95867.00
2024-01-26T13:57:16.652Z,95868.00
2024-01-26T13:58:16.564Z,95866.00
2024-01-26T13:59:16.554Z,95867.00
2024-01-26T14:00:21.395Z,95867.00
2024-01-26T14:01:19.091Z,95868.00
2024-01-26T14:02:16.596Z,95863.00
2024-01-26T14:03:16.627Z,95865.00
2024-01-26T14:04:16.632Z,95867.00
2024-01-26T14:05:16.747Z,95866.00
2024-01-26T14:06:16.752Z,95865.00
2024-01-26T14:07:16.554Z,95866.00
2024-01-26T14:08:16.609Z,95866.00
2024-01-26T14:09:16.712Z,95867.00
2024-01-26T14:10:16.593Z,95865.00
2024-01-26T14:11:16.568Z,95863.00
2024-01-26T14:12:16.651Z,95861.00
2024-01-26T14:13:16.566Z,95859.00
2024-01-26T14:14:16.629Z,95859.00
2024-01-26T14:15:17.021Z,95856.00
2024-01-26T14:16:16.585Z,95857.00
2024-01-26T14:17:16.569Z,95855.00
2024-01-26T14:18:16.772Z,95852.00
2024-01-26T14:19:16.827Z,95856.00
2024-01-26T14:20:16.617Z,95858.00
2024-01-26T14:21:16.715Z,95856.00
2024-01-26T14:22:16.598Z,95856.00
2024-01-26T14:23:16.590Z,95855.00
2024-01-26T14:24:16.674Z,95855.00
2024-01-26T14:25:16.604Z,95856.00
2024-01-26T14:26:16.605Z,95856.00
2024-01-26T14:27:16.691Z,95854.00
2024-01-26T14:28:16.614Z,95851.00
2024-01-26T14:29:16.633Z,95848.00
2024-01-26T14:30:16.662Z,95846.00
2024-01-26T14:31:16.604Z,95849.00
2024-01-26T14:32:16.633Z,95850.00
2024-01-26T14:33:16.722Z,95849.00
2024-01-26T14:34:16.727Z,95852.00
2024-01-26T14:35:43.335Z,95850.00
2024-01-26T14:36:43.172Z,95852.00
2024-01-26T14:37:43.205Z,95848.00
2024-01-26T14:38:43.251Z,95852.00
2024-01-26T14:39:43.187Z,95857.00
2024-01-26T14:40:43.243Z,95854.00
2024-01-26T14:41:43.337Z,95854.00
2024-01-26T14:42:43.362Z,95856.00
2024-01-26T14:43:43.432Z,95864.00
2024-01-26T14:44:43.544Z,95861.00
2024-01-26T14:45:43.612Z,95863.00
2024-01-26T14:46:43.612Z,95862.00
2024-01-26T14:47:43.795Z,95862.00
2024-01-26T14:48:43.856Z,95867.00
2024-01-26T14:49:43.806Z,95873.00
2024-01-26T14:51:06.340Z,95876.00
2024-01-26T14:51:43.836Z,95877.00
2024-01-26T14:52:43.809Z,95875.00
2024-01-26T14:53:43.910Z,95875.00
2024-01-26T14:54:43.835Z,95871.00
2024-01-26T14:55:43.865Z,95873.00
2024-01-26T14:56:43.878Z,95879.00
2024-01-26T14:57:43.849Z,95879.00
2024-01-26T14:58:43.837Z,95879.00
2024-01-26T14:59:43.858Z,95877.00
2024-01-26T15:00:43.895Z,95875.00
2024-01-26T15:01:43.831Z,95876.00
2024-01-26T15:02:43.852Z,95876.00
2024-01-26T15:03:43.912Z,95878.00
2024-01-26T15:04:43.918Z,95878.00
2024-01-26T15:05:43.992Z,95877.00
2024-01-26T15:06:43.870Z,95881.00
2024-01-26T15:07:47.922Z,95881.00
2024-01-26T15:08:45.047Z,95880.00
2024-01-26T15:09:43.901Z,95881.00
2024-01-26T15:10:43.850Z,95882.00
2024-01-26T15:11:43.931Z,95882.00
2024-01-26T15:12:43.853Z,95886.00
2024-01-26T15:13:43.867Z,95892.00
2024-01-26T15:14:43.878Z,95891.00
2024-01-26T15:15:43.843Z,95889.00
2024-01-26T15:16:43.863Z,95890.00
2024-01-26T15:17:43.926Z,95892.00
2024-01-26T15:18:44.083Z,95895.00
2024-01-26T15:19:44.105Z,95894.00
2024-01-26T15:20:44.175Z,95891.00
2024-01-26T15:21:44.184Z,95893.00
2024-01-26T15:22:44.139Z,95890.00
2024-01-26T15:23:44.249Z,95891.00
2024-01-26T15:24:44.237Z,95890.00
2024-01-26T15:25:44.291Z,95891.00
2024-01-26T15:26:44.458Z,95890.00
2024-01-26T15:27:44.398Z,95891.00
2024-01-26T15:28:44.449Z,95894.00
2024-01-26T15:29:44.527Z,95893.00
2024-01-26T15:30:44.590Z,95893.00
2024-01-26T15:31:44.634Z,95892.00
2024-01-26T15:32:44.801Z,95889.00
2024-01-26T15:33:44.819Z,95891.00
2024-01-26T15:34:44.819Z,95896.00
2024-01-26T15:35:44.883Z,95897.00
2024-01-26T15:36:44.868Z,95896.00
2024-01-26T15:37:44.928Z,95901.00
2024-01-26T15:38:45.053Z,95901.00
2024-01-26T15:39:45.022Z,95901.00
2024-01-26T15:40:45.117Z,95900.00
2024-01-26T15:41:45.957Z,95902.00
2024-01-26T15:42:45.276Z,95900.00
2024-01-26T15:43:45.307Z,95901.00
2024-01-26T15:44:45.217Z,95898.00
2024-01-26T15:45:45.390Z,95898.00
2024-01-26T15:46:45.286Z,95898.00
2024-01-26T15:47:45.757Z,95898.00
2024-01-26T15:48:45.564Z,95900.00
2024-01-26T15:49:45.514Z,95901.00
2024-01-26T15:50:45.485Z,95899.00
2024-01-26T15:51:45.541Z,95899.00
2024-01-26T15:52:47.082Z,95897.00
2024-01-26T15:53:46.512Z,95898.00
2024-01-26T15:54:45.528Z,95897.00
2024-01-26T15:55:45.525Z,95896.00
2024-01-26T15:56:45.663Z,95899.00
2024-01-26T15:57:45.630Z,95900.00
2024-01-26T15:58:45.684Z,95899.00
2024-01-26T15:59:47.294Z,95898.00
2024-01-26T16:00:45.819Z,95899.00
2024-01-26T16:01:45.676Z,95902.00
2024-01-26T16:02:45.723Z,95902.00
2024-01-26T16:03:45.813Z,95903.00
2024-01-26T16:04:46.056Z,95901.00
2024-01-26T16:05:45.959Z,95902.00
2024-01-26T16:06:50.069Z,95901.00
2024-01-26T16:07:45.782Z,95900.00
2024-01-26T16:08:45.821Z,95900.00
2024-01-26T16:09:45.791Z,95903.00
2024-01-26T16:10:45.797Z,95902.00
2024-01-26T16:11:45.843Z,95901.00
2024-01-26T16:12:45.819Z,95900.00
2024-01-26T16:13:45.802Z,95903.00
2024-01-26T16:14:45.847Z,95902.00
2024-01-26T16:15:45.805Z,95906.00
2024-01-26T16:16:45.804Z,95906.00
2024-01-26T16:17:45.916Z,95906.00
2024-01-26T16:18:46.244Z,95908.00
2024-01-26T16:19:45.846Z,95912.00
2024-01-26T16:20:45.916Z,95909.00
2024-01-26T16:21:45.811Z,95907.00
2024-01-26T16:22:45.798Z,95908.00
2024-01-26T16:23:45.825Z,95912.00
2024-01-26T16:24:45.857Z,95915.00
2024-01-26T16:25:45.848Z,95916.00
2024-01-26T16:26:45.893Z,95916.00
2024-01-26T16:27:45.955Z,95918.00
2024-01-26T16:28:45.838Z,95916.00
2024-01-26T16:29:45.829Z,95921.00
2024-01-26T16:30:45.835Z,95921.00
2024-01-26T16:31:45.932Z,95919.00
2024-01-26T16:32:45.972Z,95923.00
2024-01-26T16:33:46.063Z,95926.00
2024-01-26T16:34:45.909Z,95931.00
2024-01-26T16:35:45.885Z,95930.00
2024-01-26T16:36:45.947Z,95932.00
2024-01-26T16:37:45.859Z,95933.00
2024-01-26T16:38:54.329Z,95934.00
2024-01-26T16:39:46.909Z,95936.00
2024-01-26T16:40:46.086Z,95937.00
2024-01-26T16:41:45.903Z,95938.00
2024-01-26T16:43:09.367Z,95941.00
2024-01-26T16:44:08.489Z,95944.00
2024-01-26T16:45:08.532Z,95944.00
2024-01-26T16:45:46.066Z,95939.00
2024-01-26T16:46:45.989Z,95935.00
2024-01-26T16:47:46.135Z,95937.00
2024-01-26T16:48:46.134Z,95944.00
2024-01-26T16:49:46.102Z,95952.00
2024-01-26T16:50:46.057Z,95960.00
2024-01-26T16:51:46.021Z,95961.00
2024-01-26T16:52:46.024Z,95956.00
2024-01-26T16:53:46.083Z,95951.00
2024-01-26T16:54:46.100Z,95957.00
2024-01-26T16:55:46.113Z,95964.00
2024-01-26T16:56:46.103Z,95968.00
2024-01-26T16:57:46.096Z,95972.00
2024-01-26T16:58:46.056Z,95974.00
2024-01-26T16:59:46.033Z,95976.00
2024-01-26T17:00:46.227Z,95970.00
2024-01-26T17:01:46.113Z,95970.00
2024-01-26T17:02:46.200Z,95978.00
2024-01-26T17:03:46.225Z,95978.00
2024-01-26T17:04:46.076Z,95983.00
2024-01-26T17:05:46.233Z,95988.00
2024-01-26T17:06:46.143Z,95986.00
2024-01-26T17:07:46.060Z,95985.00
2024-01-26T17:08:46.163Z,95987.00
2024-01-26T17:09:46.034Z,95995.00
2024-01-26T17:10:46.044Z,95996.00
2024-01-26T17:11:46.059Z,96004.00
2024-01-26T17:12:46.049Z,96005.00
2024-01-26T17:13:46.050Z,96008.00
2024-01-26T17:14:46.110Z,96009.00
2024-01-26T17:15:46.064Z,96007.00
2024-01-26T17:16:46.043Z,96008.00
2024-01-26T17:17:46.115Z,96011.00
2024-01-26T17:18:46.306Z,96017.00
2024-01-26T17:19:46.083Z,96017.00
2024-01-26T17:20:46.113Z,96015.00
2024-01-26T17:21:46.324Z,96019.00
2024-01-26T17:22:46.055Z,96023.00
2024-01-26T17:23:46.066Z,96026.00
2024-01-26T17:24:46.017Z,96031.00
2024-01-26T17:25:46.085Z,96032.00
2024-01-26T17:26:46.076Z,96028.00
2024-01-26T17:27:46.036Z,96019.00
2024-01-26T17:28:46.047Z,96018.00
2024-01-26T17:29:46.112Z,96019.00
2024-01-26T17:30:46.110Z,96025.00
2024-01-26T17:31:46.079Z,96028.00
2024-01-26T17:32:46.254Z,96026.00
2024-01-26T17:33:46.243Z,96024.00
2024-01-26T17:34:46.148Z,96025.00
2024-01-26T17:35:46.248Z,96029.00
2024-01-26T17:36:46.237Z,96032.00
2024-01-26T17:37:46.148Z,96027.00
2024-01-26T17:38:46.189Z,96026.00
2024-01-26T17:39:56.291Z,96031.00
2024-01-26T17:40:47.206Z,96036.00
2024-01-26T17:41:46.239Z,96036.00
2024-01-26T17:42:46.186Z,96038.00
2024-01-26T17:43:46.194Z,96040.00
2024-01-26T17:44:46.201Z,96042.00
2024-01-26T17:45:46.191Z,96044.00
2024-01-26T17:46:49.147Z,96043.00
2024-01-26T17:47:46.293Z,96041.00